Weather at Fort Lauderdale Hollywood International Airport

Public forecast

Using degrees Fahrenheit for public forecast. Weather courtesy of forecast.io.

Current aviation weather report (METAR) for Fort Lauderdale Hollywood International Airport

Retrieved 2021/07/29 04:53 UTC (55 minutes ago):

KFLL 290453Z 00000KT 10SM SCT250 26/24 A3001

Aviation forecast (TAF) for Fort Lauderdale Hollywood International Airport

Retrieved 2021-07-29 00:25 UTC (5 hours ago):

TAF KFLL 282321Z 2900/3006 VRB03KT P6SM SCT030 SCT250 FM291600 14008KT P6SM VCTS SCT025CB BKN050 FM300200 VRB03KT P6SM SCT030 BKN050